sensor_id;sensor_type;location;lat;lon;timestamp;P1;durP1;ratioP1;P2;durP2;ratioP2
42904;SDS011;28550;51.228;4.528;2022-12-29T00:02:25;2.90;;;2.08;;
42904;SDS011;28550;51.228;4.528;2022-12-29T00:04:51;3.42;;;2.47;;
42904;SDS011;28550;51.228;4.528;2022-12-29T00:07:18;3.35;;;2.55;;
42904;SDS011;28550;51.228;4.528;2022-12-29T00:09:44;6.57;;;2.70;;
42904;SDS011;28550;51.228;4.528;2022-12-29T00:12:15;4.10;;;2.88;;
42904;SDS011;28550;51.228;4.528;2022-12-29T00:14:42;4.05;;;3.63;;
42904;SDS011;28550;51.228;4.528;2022-12-29T00:17:26;5.47;;;3.60;;
42904;SDS011;28550;51.228;4.528;2022-12-29T00:19:52;4.53;;;3.78;;
42904;SDS011;28550;51.228;4.528;2022-12-29T00:25:21;4.80;;;3.08;;
42904;SDS011;28550;51.228;4.528;2022-12-29T00:30:58;3.58;;;2.97;;
42904;SDS011;28550;51.228;4.528;2022-12-29T00:33:48;6.25;;;3.13;;
42904;SDS011;28550;51.228;4.528;2022-12-29T00:39:16;4.38;;;2.47;;
42904;SDS011;28550;51.228;4.528;2022-12-29T00:42:02;2.30;;;2.10;;
42904;SDS011;28550;51.228;4.528;2022-12-29T00:44:48;2.38;;;1.80;;
42904;SDS011;28550;51.228;4.528;2022-12-29T00:52:41;3.65;;;1.73;;
42904;SDS011;28550;51.228;4.528;2022-12-29T00:55:08;3.97;;;1.90;;
42904;SDS011;28550;51.228;4.528;2022-12-29T00:57:36;3.70;;;1.92;;
42904;SDS011;28550;51.228;4.528;2022-12-29T01:00:06;5.35;;;1.60;;
42904;SDS011;28550;51.228;4.528;2022-12-29T01:02:38;6.30;;;1.65;;
42904;SDS011;28550;51.228;4.528;2022-12-29T01:05:09;4.82;;;1.80;;
42904;SDS011;28550;51.228;4.528;2022-12-29T01:10:12;4.10;;;1.13;;
42904;SDS011;28550;51.228;4.528;2022-12-29T01:12:43;3.90;;;1.40;;
42904;SDS011;28550;51.228;4.528;2022-12-29T01:15:11;2.22;;;1.63;;
42904;SDS011;28550;51.228;4.528;2022-12-29T01:17:38;4.40;;;1.25;;
42904;SDS011;28550;51.228;4.528;2022-12-29T01:20:11;1.85;;;1.40;;
42904;SDS011;28550;51.228;4.528;2022-12-29T01:23:00;2.70;;;0.90;;
42904;SDS011;28550;51.228;4.528;2022-12-29T01:25:26;4.00;;;1.90;;
42904;SDS011;28550;51.228;4.528;2022-12-29T01:30:52;18.00;;;2.38;;
42904;SDS011;28550;51.228;4.528;2022-12-29T01:33:28;2.90;;;1.42;;
42904;SDS011;28550;51.228;4.528;2022-12-29T01:36:01;2.42;;;1.40;;
42904;SDS011;28550;51.228;4.528;2022-12-29T01:38:47;2.22;;;1.35;;
42904;SDS011;28550;51.228;4.528;2022-12-29T01:41:17;6.95;;;1.40;;
42904;SDS011;28550;51.228;4.528;2022-12-29T01:43:51;4.85;;;1.73;;
42904;SDS011;28550;51.228;4.528;2022-12-29T01:49:26;8.75;;;1.80;;
42904;SDS011;28550;51.228;4.528;2022-12-29T01:55:08;6.43;;;1.30;;
42904;SDS011;28550;51.228;4.528;2022-12-29T01:58:08;2.10;;;1.60;;
42904;SDS011;28550;51.228;4.528;2022-12-29T02:00:42;3.00;;;1.40;;
42904;SDS011;28550;51.228;4.528;2022-12-29T02:03:18;4.18;;;1.25;;
42904;SDS011;28550;51.228;4.528;2022-12-29T02:09:26;5.20;;;1.60;;
42904;SDS011;28550;51.228;4.528;2022-12-29T02:12:00;4.63;;;1.42;;
42904;SDS011;28550;51.228;4.528;2022-12-29T02:14:49;4.50;;;1.73;;
42904;SDS011;28550;51.228;4.528;2022-12-29T02:21:16;6.32;;;1.50;;
42904;SDS011;28550;51.228;4.528;2022-12-29T02:33:04;2.65;;;1.42;;
42904;SDS011;28550;51.228;4.528;2022-12-29T02:36:00;2.72;;;1.48;;
42904;SDS011;28550;51.228;4.528;2022-12-29T02:42:13;5.13;;;2.92;;
42904;SDS011;28550;51.228;4.528;2022-12-29T02:47:40;5.32;;;1.52;;
42904;SDS011;28550;51.228;4.528;2022-12-29T02:50:37;1.40;;;1.05;;
42904;SDS011;28550;51.228;4.528;2022-12-29T02:53:17;6.10;;;1.80;;
42904;SDS011;28550;51.228;4.528;2022-12-29T02:56:10;2.58;;;1.65;;
42904;SDS011;28550;51.228;4.528;2022-12-29T03:06:59;4.40;;;1.30;;
42904;SDS011;28550;51.228;4.528;2022-12-29T03:16:07;2.55;;;1.08;;
42904;SDS011;28550;51.228;4.528;2022-12-29T03:19:23;5.70;;;1.38;;
42904;SDS011;28550;51.228;4.528;2022-12-29T03:22:23;5.97;;;1.75;;
42904;SDS011;28550;51.228;4.528;2022-12-29T03:25:58;3.10;;;1.48;;
42904;SDS011;28550;51.228;4.528;2022-12-29T03:31:52;5.63;;;1.23;;
42904;SDS011;28550;51.228;4.528;2022-12-29T03:35:12;7.95;;;1.35;;
42904;SDS011;28550;51.228;4.528;2022-12-29T03:37:41;3.88;;;1.52;;
42904;SDS011;28550;51.228;4.528;2022-12-29T03:40:18;6.10;;;1.77;;
42904;SDS011;28550;51.228;4.528;2022-12-29T03:42:57;7.20;;;1.60;;
42904;SDS011;28550;51.228;4.528;2022-12-29T03:45:37;3.15;;;1.40;;
42904;SDS011;28550;51.228;4.528;2022-12-29T03:48:03;5.68;;;1.40;;
42904;SDS011;28550;51.228;4.528;2022-12-29T03:50:29;3.55;;;1.45;;
42904;SDS011;28550;51.228;4.528;2022-12-29T03:53:31;3.58;;;1.85;;
42904;SDS011;28550;51.228;4.528;2022-12-29T03:56:19;6.63;;;1.80;;
42904;SDS011;28550;51.228;4.528;2022-12-29T04:01:23;6.20;;;1.40;;
42904;SDS011;28550;51.228;4.528;2022-12-29T04:03:52;4.70;;;1.35;;
42904;SDS011;28550;51.228;4.528;2022-12-29T04:06:38;4.53;;;2.10;;
42904;SDS011;28550;51.228;4.528;2022-12-29T04:09:24;3.85;;;1.35;;
42904;SDS011;28550;51.228;4.528;2022-12-29T04:12:09;4.60;;;2.25;;
42904;SDS011;28550;51.228;4.528;2022-12-29T04:14:39;8.32;;;2.08;;
42904;SDS011;28550;51.228;4.528;2022-12-29T04:17:16;4.95;;;1.42;;
42904;SDS011;28550;51.228;4.528;2022-12-29T04:19:47;8.55;;;1.75;;
42904;SDS011;28550;51.228;4.528;2022-12-29T04:22:12;7.70;;;1.88;;
42904;SDS011;28550;51.228;4.528;2022-12-29T04:24:40;7.72;;;1.80;;
42904;SDS011;28550;51.228;4.528;2022-12-29T04:30:25;8.00;;;1.63;;
42904;SDS011;28550;51.228;4.528;2022-12-29T04:33:02;7.65;;;1.50;;
42904;SDS011;28550;51.228;4.528;2022-12-29T04:35:35;4.55;;;1.67;;
42904;SDS011;28550;51.228;4.528;2022-12-29T04:38:29;6.85;;;1.80;;
42904;SDS011;28550;51.228;4.528;2022-12-29T04:41:05;9.70;;;1.38;;
42904;SDS011;28550;51.228;4.528;2022-12-29T04:43:36;12.63;;;2.05;;
42904;SDS011;28550;51.228;4.528;2022-12-29T04:46:06;4.88;;;1.73;;
42904;SDS011;28550;51.228;4.528;2022-12-29T04:48:33;6.45;;;2.13;;
42904;SDS011;28550;51.228;4.528;2022-12-29T04:51:00;6.32;;;2.00;;
42904;SDS011;28550;51.228;4.528;2022-12-29T04:53:27;6.72;;;1.95;;
42904;SDS011;28550;51.228;4.528;2022-12-29T04:55:53;7.80;;;1.70;;
42904;SDS011;28550;51.228;4.528;2022-12-29T04:58:21;10.07;;;1.73;;
42904;SDS011;28550;51.228;4.528;2022-12-29T05:01:13;9.93;;;2.10;;
42904;SDS011;28550;51.228;4.528;2022-12-29T05:03:49;8.60;;;1.90;;
42904;SDS011;28550;51.228;4.528;2022-12-29T05:06:32;5.93;;;1.23;;
42904;SDS011;28550;51.228;4.528;2022-12-29T05:08:59;3.58;;;1.58;;
42904;SDS011;28550;51.228;4.528;2022-12-29T05:11:35;4.63;;;1.17;;
42904;SDS011;28550;51.228;4.528;2022-12-29T05:14:01;5.07;;;1.55;;
42904;SDS011;28550;51.228;4.528;2022-12-29T05:16:39;6.50;;;1.50;;
42904;SDS011;28550;51.228;4.528;2022-12-29T05:19:19;8.10;;;1.80;;
42904;SDS011;28550;51.228;4.528;2022-12-29T05:21:45;8.18;;;1.67;;
42904;SDS011;28550;51.228;4.528;2022-12-29T05:24:19;4.53;;;1.45;;
42904;SDS011;28550;51.228;4.528;2022-12-29T05:27:03;7.57;;;1.52;;
42904;SDS011;28550;51.228;4.528;2022-12-29T05:29:37;5.18;;;1.50;;
42904;SDS011;28550;51.228;4.528;2022-12-29T05:32:09;12.18;;;2.20;;
42904;SDS011;28550;51.228;4.528;2022-12-29T05:34:45;2.08;;;1.10;;
42904;SDS011;28550;51.228;4.528;2022-12-29T05:37:16;3.75;;;1.52;;
42904;SDS011;28550;51.228;4.528;2022-12-29T05:42:21;4.22;;;1.45;;
42904;SDS011;28550;51.228;4.528;2022-12-29T05:44:47;7.18;;;1.50;;
42904;SDS011;28550;51.228;4.528;2022-12-29T05:47:42;3.00;;;1.70;;
42904;SDS011;28550;51.228;4.528;2022-12-29T05:50:12;6.28;;;1.50;;
42904;SDS011;28550;51.228;4.528;2022-12-29T05:53:01;3.28;;;1.38;;
42904;SDS011;28550;51.228;4.528;2022-12-29T05:55:37;7.88;;;1.52;;
42904;SDS011;28550;51.228;4.528;2022-12-29T05:58:44;6.40;;;1.77;;
42904;SDS011;28550;51.228;4.528;2022-12-29T06:01:20;10.35;;;3.35;;
42904;SDS011;28550;51.228;4.528;2022-12-29T06:03:51;5.88;;;2.00;;
42904;SDS011;28550;51.228;4.528;2022-12-29T06:09:19;10.13;;;2.00;;
42904;SDS011;28550;51.228;4.528;2022-12-29T06:11:54;5.55;;;1.65;;
42904;SDS011;28550;51.228;4.528;2022-12-29T06:14:24;8.77;;;1.83;;
42904;SDS011;28550;51.228;4.528;2022-12-29T06:17:01;6.38;;;1.77;;
42904;SDS011;28550;51.228;4.528;2022-12-29T06:19:44;11.18;;;2.03;;
42904;SDS011;28550;51.228;4.528;2022-12-29T06:22:13;7.85;;;2.00;;
42904;SDS011;28550;51.228;4.528;2022-12-29T06:25:20;8.45;;;2.15;;
42904;SDS011;28550;51.228;4.528;2022-12-29T06:28:02;10.15;;;3.53;;
42904;SDS011;28550;51.228;4.528;2022-12-29T06:31:14;7.90;;;1.70;;
42904;SDS011;28550;51.228;4.528;2022-12-29T06:34:06;9.57;;;3.00;;
42904;SDS011;28550;51.228;4.528;2022-12-29T06:36:43;10.98;;;2.22;;
42904;SDS011;28550;51.228;4.528;2022-12-29T06:39:31;12.90;;;2.28;;
42904;SDS011;28550;51.228;4.528;2022-12-29T06:42:30;7.63;;;2.50;;
42904;SDS011;28550;51.228;4.528;2022-12-29T06:45:41;9.05;;;1.70;;
42904;SDS011;28550;51.228;4.528;2022-12-29T06:48:23;11.02;;;2.58;;
42904;SDS011;28550;51.228;4.528;2022-12-29T06:50:51;7.88;;;2.20;;
42904;SDS011;28550;51.228;4.528;2022-12-29T06:53:30;11.68;;;2.25;;
42904;SDS011;28550;51.228;4.528;2022-12-29T06:55:57;9.27;;;2.05;;
42904;SDS011;28550;51.228;4.528;2022-12-29T06:58:54;10.95;;;2.45;;
42904;SDS011;28550;51.228;4.528;2022-12-29T07:01:31;6.25;;;2.10;;
42904;SDS011;28550;51.228;4.528;2022-12-29T07:04:03;14.15;;;2.47;;
42904;SDS011;28550;51.228;4.528;2022-12-29T07:07:07;10.80;;;2.33;;
42904;SDS011;28550;51.228;4.528;2022-12-29T07:09:59;10.15;;;2.70;;
42904;SDS011;28550;51.228;4.528;2022-12-29T07:12:50;14.60;;;3.35;;
42904;SDS011;28550;51.228;4.528;2022-12-29T07:15:25;9.25;;;2.45;;
42904;SDS011;28550;51.228;4.528;2022-12-29T07:17:57;14.45;;;3.40;;
42904;SDS011;28550;51.228;4.528;2022-12-29T07:23:50;9.25;;;1.95;;
42904;SDS011;28550;51.228;4.528;2022-12-29T07:26:47;12.50;;;2.83;;
42904;SDS011;28550;51.228;4.528;2022-12-29T07:29:24;15.63;;;3.28;;
42904;SDS011;28550;51.228;4.528;2022-12-29T07:31:52;6.57;;;2.13;;
42904;SDS011;28550;51.228;4.528;2022-12-29T07:34:30;9.95;;;2.65;;
42904;SDS011;28550;51.228;4.528;2022-12-29T07:37:27;11.23;;;2.25;;
42904;SDS011;28550;51.228;4.528;2022-12-29T07:40:04;9.43;;;2.70;;
42904;SDS011;28550;51.228;4.528;2022-12-29T07:42:41;14.88;;;2.92;;
42904;SDS011;28550;51.228;4.528;2022-12-29T07:48:04;11.18;;;2.55;;
42904;SDS011;28550;51.228;4.528;2022-12-29T07:51:05;11.57;;;2.40;;
42904;SDS011;28550;51.228;4.528;2022-12-29T07:53:44;11.90;;;2.47;;
42904;SDS011;28550;51.228;4.528;2022-12-29T07:56:43;6.90;;;1.85;;
42904;SDS011;28550;51.228;4.528;2022-12-29T07:59:16;11.77;;;2.70;;
42904;SDS011;28550;51.228;4.528;2022-12-29T08:01:51;6.35;;;2.20;;
42904;SDS011;28550;51.228;4.528;2022-12-29T08:04:41;7.53;;;2.58;;
42904;SDS011;28550;51.228;4.528;2022-12-29T08:09:56;11.18;;;3.30;;
42904;SDS011;28550;51.228;4.528;2022-12-29T08:12:32;10.07;;;3.30;;
42904;SDS011;28550;51.228;4.528;2022-12-29T08:15:00;8.07;;;2.83;;
42904;SDS011;28550;51.228;4.528;2022-12-29T08:17:26;10.30;;;3.08;;
42904;SDS011;28550;51.228;4.528;2022-12-29T08:20:00;11.98;;;3.33;;
42904;SDS011;28550;51.228;4.528;2022-12-29T08:22:56;7.47;;;2.20;;
42904;SDS011;28550;51.228;4.528;2022-12-29T08:25:42;6.47;;;2.70;;
42904;SDS011;28550;51.228;4.528;2022-12-29T08:28:39;12.95;;;3.10;;
42904;SDS011;28550;51.228;4.528;2022-12-29T08:31:08;5.68;;;2.38;;
42904;SDS011;28550;51.228;4.528;2022-12-29T08:34:17;12.93;;;2.50;;
42904;SDS011;28550;51.228;4.528;2022-12-29T08:36:45;10.93;;;3.05;;
42904;SDS011;28550;51.228;4.528;2022-12-29T08:39:10;9.38;;;2.50;;
42904;SDS011;28550;51.228;4.528;2022-12-29T08:45:28;10.52;;;2.75;;
42904;SDS011;28550;51.228;4.528;2022-12-29T08:48:22;8.75;;;2.88;;
42904;SDS011;28550;51.228;4.528;2022-12-29T08:50:56;13.45;;;3.42;;
42904;SDS011;28550;51.228;4.528;2022-12-29T11:13:04;12.75;;;3.75;;
42904;SDS011;28550;51.228;4.528;2022-12-29T11:56:04;17.33;;;3.05;;
42904;SDS011;28550;51.228;4.528;2022-12-29T11:58:57;7.40;;;2.15;;
42904;SDS011;28550;51.228;4.528;2022-12-29T12:11:47;9.70;;;3.30;;
42904;SDS011;28550;51.228;4.528;2022-12-29T12:16:54;14.30;;;2.65;;
42904;SDS011;28550;51.228;4.528;2022-12-29T12:32:22;20.58;;;3.28;;
42904;SDS011;28550;51.228;4.528;2022-12-29T12:35:21;12.65;;;3.17;;
42904;SDS011;28550;51.228;4.528;2022-12-29T14:04:24;12.10;;;2.85;;
42904;SDS011;28550;51.228;4.528;2022-12-29T14:08:00;12.93;;;3.03;;
42904;SDS011;28550;51.228;4.528;2022-12-29T14:10:50;12.80;;;2.58;;
42904;SDS011;28550;51.228;4.528;2022-12-29T14:13:23;11.05;;;2.60;;
42904;SDS011;28550;51.228;4.528;2022-12-29T14:16:31;20.00;;;4.38;;
42904;SDS011;28550;51.228;4.528;2022-12-29T14:19:28;12.18;;;3.47;;
42904;SDS011;28550;51.228;4.528;2022-12-29T14:22:00;15.23;;;2.45;;
42904;SDS011;28550;51.228;4.528;2022-12-29T14:33:37;4.75;;;1.50;;
42904;SDS011;28550;51.228;4.528;2022-12-29T14:41:59;9.90;;;1.95;;
42904;SDS011;28550;51.228;4.528;2022-12-29T14:44:49;6.95;;;1.80;;
42904;SDS011;28550;51.228;4.528;2022-12-29T14:47:53;4.05;;;1.48;;
42904;SDS011;28550;51.228;4.528;2022-12-29T14:50:40;6.65;;;1.85;;
42904;SDS011;28550;51.228;4.528;2022-12-29T15:13:23;6.95;;;1.63;;
42904;SDS011;28550;51.228;4.528;2022-12-29T15:16:00;7.55;;;1.42;;
42904;SDS011;28550;51.228;4.528;2022-12-29T15:18:33;5.57;;;1.33;;
42904;SDS011;28550;51.228;4.528;2022-12-29T15:21:11;4.93;;;1.70;;
42904;SDS011;28550;51.228;4.528;2022-12-29T15:23:40;3.45;;;1.40;;
42904;SDS011;28550;51.228;4.528;2022-12-29T15:26:11;5.28;;;1.52;;
42904;SDS011;28550;51.228;4.528;2022-12-29T15:28:48;3.03;;;1.83;;
42904;SDS011;28550;51.228;4.528;2022-12-29T15:31:17;8.25;;;1.65;;
42904;SDS011;28550;51.228;4.528;2022-12-29T15:37:07;4.30;;;1.45;;
42904;SDS011;28550;51.228;4.528;2022-12-29T15:45:12;6.03;;;1.40;;
42904;SDS011;28550;51.228;4.528;2022-12-29T15:47:41;8.10;;;2.55;;
42904;SDS011;28550;51.228;4.528;2022-12-29T15:50:28;10.95;;;2.30;;
42904;SDS011;28550;51.228;4.528;2022-12-29T15:53:10;6.32;;;2.13;;
42904;SDS011;28550;51.228;4.528;2022-12-29T15:59:01;17.67;;;3.00;;
42904;SDS011;28550;51.228;4.528;2022-12-29T16:01:31;17.17;;;2.45;;
42904;SDS011;28550;51.228;4.528;2022-12-29T16:04:00;12.00;;;2.72;;
42904;SDS011;28550;51.228;4.528;2022-12-29T16:06:30;11.38;;;2.90;;
42904;SDS011;28550;51.228;4.528;2022-12-29T16:09:16;11.75;;;2.28;;
42904;SDS011;28550;51.228;4.528;2022-12-29T16:11:44;9.60;;;3.03;;
42904;SDS011;28550;51.228;4.528;2022-12-29T16:14:18;15.02;;;3.35;;
42904;SDS011;28550;51.228;4.528;2022-12-29T16:16:48;16.75;;;2.97;;
42904;SDS011;28550;51.228;4.528;2022-12-29T16:19:27;9.65;;;2.63;;
42904;SDS011;28550;51.228;4.528;2022-12-29T16:22:01;10.40;;;3.10;;
42904;SDS011;28550;51.228;4.528;2022-12-29T16:27:14;6.15;;;2.58;;
42904;SDS011;28550;51.228;4.528;2022-12-29T16:29:52;9.63;;;2.20;;
42904;SDS011;28550;51.228;4.528;2022-12-29T16:35:10;9.50;;;3.00;;
42904;SDS011;28550;51.228;4.528;2022-12-29T16:37:38;11.68;;;2.30;;
42904;SDS011;28550;51.228;4.528;2022-12-29T16:42:49;14.05;;;4.70;;
42904;SDS011;28550;51.228;4.528;2022-12-29T16:50:45;13.25;;;2.85;;
42904;SDS011;28550;51.228;4.528;2022-12-29T16:53:47;14.57;;;3.58;;
42904;SDS011;28550;51.228;4.528;2022-12-29T16:56:13;17.77;;;3.97;;
42904;SDS011;28550;51.228;4.528;2022-12-29T16:58:49;7.13;;;2.58;;
42904;SDS011;28550;51.228;4.528;2022-12-29T17:01:34;15.40;;;3.17;;
42904;SDS011;28550;51.228;4.528;2022-12-29T17:04:43;6.97;;;2.67;;
42904;SDS011;28550;51.228;4.528;2022-12-29T17:07:31;10.35;;;4.10;;
42904;SDS011;28550;51.228;4.528;2022-12-29T17:09:57;11.57;;;2.83;;
42904;SDS011;28550;51.228;4.528;2022-12-29T17:12:25;20.33;;;3.65;;
42904;SDS011;28550;51.228;4.528;2022-12-29T17:14:56;22.52;;;4.38;;
42904;SDS011;28550;51.228;4.528;2022-12-29T17:19:56;9.40;;;3.88;;
42904;SDS011;28550;51.228;4.528;2022-12-29T17:22:28;12.25;;;4.13;;
42904;SDS011;28550;51.228;4.528;2022-12-29T17:24:55;15.57;;;3.65;;
42904;SDS011;28550;51.228;4.528;2022-12-29T17:27:24;11.63;;;3.47;;
42904;SDS011;28550;51.228;4.528;2022-12-29T17:30:14;11.30;;;3.58;;
42904;SDS011;28550;51.228;4.528;2022-12-29T17:32:51;12.65;;;3.03;;
42904;SDS011;28550;51.228;4.528;2022-12-29T17:35:20;16.02;;;4.43;;
42904;SDS011;28550;51.228;4.528;2022-12-29T17:37:48;17.23;;;4.25;;
42904;SDS011;28550;51.228;4.528;2022-12-29T17:40:18;18.48;;;3.75;;
42904;SDS011;28550;51.228;4.528;2022-12-29T17:42:51;16.08;;;4.13;;
42904;SDS011;28550;51.228;4.528;2022-12-29T17:45:22;12.88;;;4.60;;
42904;SDS011;28550;51.228;4.528;2022-12-29T17:47:52;24.17;;;5.07;;
42904;SDS011;28550;51.228;4.528;2022-12-29T17:50:20;10.75;;;4.35;;
42904;SDS011;28550;51.228;4.528;2022-12-29T17:52:51;16.33;;;4.20;;
42904;SDS011;28550;51.228;4.528;2022-12-29T17:55:41;14.73;;;3.90;;
42904;SDS011;28550;51.228;4.528;2022-12-29T17:58:18;15.27;;;5.30;;
42904;SDS011;28550;51.228;4.528;2022-12-29T18:00:45;20.20;;;4.50;;
42904;SDS011;28550;51.228;4.528;2022-12-29T18:03:13;17.83;;;4.25;;
42904;SDS011;28550;51.228;4.528;2022-12-29T18:05:49;13.85;;;4.32;;
42904;SDS011;28550;51.228;4.528;2022-12-29T18:08:15;12.80;;;4.00;;
42904;SDS011;28550;51.228;4.528;2022-12-29T18:10:41;15.68;;;4.28;;
42904;SDS011;28550;51.228;4.528;2022-12-29T18:13:08;18.42;;;4.32;;
42904;SDS011;28550;51.228;4.528;2022-12-29T18:15:53;17.73;;;4.45;;
42904;SDS011;28550;51.228;4.528;2022-12-29T18:18:23;18.50;;;4.97;;
42904;SDS011;28550;51.228;4.528;2022-12-29T18:20:51;23.42;;;4.85;;
42904;SDS011;28550;51.228;4.528;2022-12-29T18:25:51;19.00;;;4.82;;
42904;SDS011;28550;51.228;4.528;2022-12-29T18:28:25;14.57;;;4.40;;
42904;SDS011;28550;51.228;4.528;2022-12-29T18:30:51;18.95;;;4.93;;
42904;SDS011;28550;51.228;4.528;2022-12-29T18:33:19;11.52;;;4.47;;
42904;SDS011;28550;51.228;4.528;2022-12-29T18:35:50;12.20;;;4.05;;
42904;SDS011;28550;51.228;4.528;2022-12-29T18:38:19;15.75;;;5.10;;
42904;SDS011;28550;51.228;4.528;2022-12-29T18:40:45;12.25;;;4.00;;
42904;SDS011;28550;51.228;4.528;2022-12-29T18:43:13;16.50;;;4.72;;
42904;SDS011;28550;51.228;4.528;2022-12-29T18:45:40;11.65;;;3.92;;
42904;SDS011;28550;51.228;4.528;2022-12-29T18:48:07;19.83;;;5.35;;
42904;SDS011;28550;51.228;4.528;2022-12-29T18:50:34;13.45;;;4.03;;
42904;SDS011;28550;51.228;4.528;2022-12-29T18:53:00;20.15;;;4.57;;
42904;SDS011;28550;51.228;4.528;2022-12-29T18:55:28;14.38;;;5.28;;
42904;SDS011;28550;51.228;4.528;2022-12-29T18:57:54;16.35;;;4.43;;
42904;SDS011;28550;51.228;4.528;2022-12-29T19:00:21;16.65;;;4.32;;
42904;SDS011;28550;51.228;4.528;2022-12-29T19:02:48;17.17;;;4.38;;
42904;SDS011;28550;51.228;4.528;2022-12-29T19:05:27;17.00;;;4.38;;
42904;SDS011;28550;51.228;4.528;2022-12-29T19:10:26;20.33;;;4.00;;
42904;SDS011;28550;51.228;4.528;2022-12-29T19:12:52;14.43;;;3.95;;
42904;SDS011;28550;51.228;4.528;2022-12-29T19:15:25;17.20;;;4.68;;
42904;SDS011;28550;51.228;4.528;2022-12-29T19:17:53;15.02;;;4.35;;
42904;SDS011;28550;51.228;4.528;2022-12-29T19:20:31;14.80;;;4.72;;
42904;SDS011;28550;51.228;4.528;2022-12-29T19:22:58;14.85;;;4.50;;
42904;SDS011;28550;51.228;4.528;2022-12-29T19:25:27;16.55;;;4.78;;
42904;SDS011;28550;51.228;4.528;2022-12-29T19:27:54;21.00;;;4.32;;
42904;SDS011;28550;51.228;4.528;2022-12-29T19:30:23;16.33;;;4.93;;
42904;SDS011;28550;51.228;4.528;2022-12-29T19:32:51;12.85;;;3.60;;
42904;SDS011;28550;51.228;4.528;2022-12-29T19:35:34;10.75;;;3.63;;
42904;SDS011;28550;51.228;4.528;2022-12-29T19:38:02;10.90;;;4.07;;
42904;SDS011;28550;51.228;4.528;2022-12-29T19:42:58;16.92;;;3.90;;
42904;SDS011;28550;51.228;4.528;2022-12-29T19:45:24;10.27;;;4.22;;
42904;SDS011;28550;51.228;4.528;2022-12-29T19:47:51;13.63;;;4.65;;
42904;SDS011;28550;51.228;4.528;2022-12-29T19:50:18;15.68;;;4.22;;
42904;SDS011;28550;51.228;4.528;2022-12-29T19:52:44;19.88;;;3.90;;
42904;SDS011;28550;51.228;4.528;2022-12-29T19:55:11;13.65;;;3.75;;
42904;SDS011;28550;51.228;4.528;2022-12-29T19:57:40;11.45;;;3.55;;
42904;SDS011;28550;51.228;4.528;2022-12-29T20:00:10;9.73;;;2.80;;
42904;SDS011;28550;51.228;4.528;2022-12-29T20:05:30;9.77;;;4.22;;
42904;SDS011;28550;51.228;4.528;2022-12-29T20:07:56;12.13;;;3.63;;
42904;SDS011;28550;51.228;4.528;2022-12-29T20:10:22;16.50;;;4.72;;
42904;SDS011;28550;51.228;4.528;2022-12-29T20:12:49;10.60;;;3.80;;
42904;SDS011;28550;51.228;4.528;2022-12-29T20:15:15;11.45;;;3.85;;
42904;SDS011;28550;51.228;4.528;2022-12-29T20:17:43;10.68;;;3.70;;
42904;SDS011;28550;51.228;4.528;2022-12-29T20:20:08;12.65;;;2.97;;
42904;SDS011;28550;51.228;4.528;2022-12-29T20:22:35;20.95;;;4.45;;
42904;SDS011;28550;51.228;4.528;2022-12-29T20:25:02;16.00;;;3.90;;
42904;SDS011;28550;51.228;4.528;2022-12-29T20:27:28;19.50;;;4.35;;
42904;SDS011;28550;51.228;4.528;2022-12-29T20:29:54;16.45;;;3.22;;
42904;SDS011;28550;51.228;4.528;2022-12-29T20:32:20;15.93;;;4.07;;
42904;SDS011;28550;51.228;4.528;2022-12-29T20:34:47;17.00;;;3.55;;
42904;SDS011;28550;51.228;4.528;2022-12-29T20:37:13;10.15;;;3.67;;
42904;SDS011;28550;51.228;4.528;2022-12-29T20:39:40;13.65;;;3.92;;
42904;SDS011;28550;51.228;4.528;2022-12-29T20:42:08;12.95;;;3.70;;
42904;SDS011;28550;51.228;4.528;2022-12-29T20:44:37;8.13;;;3.72;;
42904;SDS011;28550;51.228;4.528;2022-12-29T20:47:24;11.18;;;3.17;;
42904;SDS011;28550;51.228;4.528;2022-12-29T20:49:52;17.70;;;4.03;;
42904;SDS011;28550;51.228;4.528;2022-12-29T20:52:17;16.73;;;4.70;;
42904;SDS011;28550;51.228;4.528;2022-12-29T20:54:44;9.93;;;3.60;;
42904;SDS011;28550;51.228;4.528;2022-12-29T20:57:11;15.45;;;3.97;;
42904;SDS011;28550;51.228;4.528;2022-12-29T20:59:37;7.95;;;3.95;;
42904;SDS011;28550;51.228;4.528;2022-12-29T21:02:02;14.02;;;4.78;;
42904;SDS011;28550;51.228;4.528;2022-12-29T21:04:31;11.18;;;3.53;;
42904;SDS011;28550;51.228;4.528;2022-12-29T21:06:57;15.70;;;3.95;;
42904;SDS011;28550;51.228;4.528;2022-12-29T21:09:28;16.73;;;3.88;;
42904;SDS011;28550;51.228;4.528;2022-12-29T21:11:54;12.10;;;3.72;;
42904;SDS011;28550;51.228;4.528;2022-12-29T21:14:20;15.10;;;3.65;;
42904;SDS011;28550;51.228;4.528;2022-12-29T21:16:45;21.25;;;4.20;;
42904;SDS011;28550;51.228;4.528;2022-12-29T21:19:15;13.15;;;4.07;;
42904;SDS011;28550;51.228;4.528;2022-12-29T21:21:44;14.38;;;3.85;;
42904;SDS011;28550;51.228;4.528;2022-12-29T21:24:12;17.48;;;4.07;;
42904;SDS011;28550;51.228;4.528;2022-12-29T21:26:42;18.60;;;4.30;;
42904;SDS011;28550;51.228;4.528;2022-12-29T21:29:13;12.13;;;3.20;;
42904;SDS011;28550;51.228;4.528;2022-12-29T21:31:41;14.10;;;3.75;;
42904;SDS011;28550;51.228;4.528;2022-12-29T21:34:10;15.38;;;3.88;;
42904;SDS011;28550;51.228;4.528;2022-12-29T21:36:36;13.63;;;3.30;;
42904;SDS011;28550;51.228;4.528;2022-12-29T21:39:02;7.53;;;3.35;;
42904;SDS011;28550;51.228;4.528;2022-12-29T21:41:33;10.75;;;3.75;;
42904;SDS011;28550;51.228;4.528;2022-12-29T21:44:00;18.35;;;3.83;;
42904;SDS011;28550;51.228;4.528;2022-12-29T21:46:47;16.48;;;5.53;;
42904;SDS011;28550;51.228;4.528;2022-12-29T21:49:21;14.48;;;3.35;;
42904;SDS011;28550;51.228;4.528;2022-12-29T21:52:00;12.20;;;3.75;;
42904;SDS011;28550;51.228;4.528;2022-12-29T21:54:31;10.07;;;3.15;;
42904;SDS011;28550;51.228;4.528;2022-12-29T21:57:17;10.25;;;4.00;;
42904;SDS011;28550;51.228;4.528;2022-12-29T22:00:06;14.38;;;3.58;;
42904;SDS011;28550;51.228;4.528;2022-12-29T22:02:52;13.02;;;3.25;;
42904;SDS011;28550;51.228;4.528;2022-12-29T22:05:40;10.57;;;3.80;;
42904;SDS011;28550;51.228;4.528;2022-12-29T22:08:39;17.17;;;3.75;;
42904;SDS011;28550;51.228;4.528;2022-12-29T22:11:24;16.23;;;4.00;;
42904;SDS011;28550;51.228;4.528;2022-12-29T22:14:11;15.63;;;3.63;;
42904;SDS011;28550;51.228;4.528;2022-12-29T22:16:46;12.00;;;3.15;;
42904;SDS011;28550;51.228;4.528;2022-12-29T22:19:16;9.88;;;3.08;;
42904;SDS011;28550;51.228;4.528;2022-12-29T22:21:44;14.73;;;3.60;;
42904;SDS011;28550;51.228;4.528;2022-12-29T22:24:09;16.95;;;4.30;;
42904;SDS011;28550;51.228;4.528;2022-12-29T22:26:35;7.43;;;2.90;;
42904;SDS011;28550;51.228;4.528;2022-12-29T22:29:01;13.68;;;3.90;;
42904;SDS011;28550;51.228;4.528;2022-12-29T22:31:29;18.50;;;4.20;;
42904;SDS011;28550;51.228;4.528;2022-12-29T22:34:11;11.10;;;3.10;;
42904;SDS011;28550;51.228;4.528;2022-12-29T22:36:38;10.07;;;3.65;;
42904;SDS011;28550;51.228;4.528;2022-12-29T22:39:04;15.15;;;4.03;;
42904;SDS011;28550;51.228;4.528;2022-12-29T22:41:42;16.17;;;5.20;;
42904;SDS011;28550;51.228;4.528;2022-12-29T22:44:10;10.93;;;2.78;;
42904;SDS011;28550;51.228;4.528;2022-12-29T22:46:36;13.85;;;3.65;;
42904;SDS011;28550;51.228;4.528;2022-12-29T22:49:07;10.80;;;3.08;;
42904;SDS011;28550;51.228;4.528;2022-12-29T22:51:38;9.52;;;3.83;;
42904;SDS011;28550;51.228;4.528;2022-12-29T22:56:36;9.18;;;3.53;;
42904;SDS011;28550;51.228;4.528;2022-12-29T22:59:06;13.38;;;3.15;;
42904;SDS011;28550;51.228;4.528;2022-12-29T23:01:35;8.60;;;2.78;;
42904;SDS011;28550;51.228;4.528;2022-12-29T23:04:02;10.32;;;3.60;;
42904;SDS011;28550;51.228;4.528;2022-12-29T23:06:35;10.82;;;2.88;;
42904;SDS011;28550;51.228;4.528;2022-12-29T23:09:03;18.98;;;4.80;;
42904;SDS011;28550;51.228;4.528;2022-12-29T23:11:29;12.48;;;3.30;;